createdAt,value
2019-05-20T00:01:38.127Z,34.17
2019-05-20T00:04:04.680Z,35.73
2019-05-20T00:06:31.507Z,36.77
2019-05-20T00:08:57.855Z,36.10
2019-05-20T00:11:24.584Z,34.50
2019-05-20T00:13:51.433Z,33.27
2019-05-20T00:16:17.903Z,35.30
2019-05-20T00:18:44.353Z,33.00
2019-05-20T00:21:11.140Z,32.63
2019-05-20T00:23:37.974Z,36.00
2019-05-20T00:26:04.421Z,35.93
2019-05-20T00:28:31.007Z,36.70
2019-05-20T00:30:57.795Z,35.63
2019-05-20T00:33:24.268Z,39.13
2019-05-20T00:35:50.924Z,39.87
2019-05-20T00:38:17.408Z,40.40
2019-05-20T00:40:44.444Z,41.80
2019-05-20T00:43:11.393Z,40.40
2019-05-20T00:45:37.965Z,43.17
2019-05-20T00:48:24.379Z,37.33
2019-05-20T00:50:51.171Z,39.03
2019-05-20T00:53:18.121Z,42.10
2019-05-20T00:55:44.855Z,41.43
2019-05-20T00:58:11.799Z,41.93
2019-05-20T01:00:38.830Z,40.10
2019-05-20T01:03:05.569Z,44.60
2019-05-20T01:05:32.430Z,42.40
2019-05-20T01:07:59.014Z,42.10
2019-05-20T01:10:25.583Z,44.90
2019-05-20T01:12:52.494Z,40.53
2019-05-20T01:15:19.394Z,44.30
2019-05-20T01:17:45.868Z,44.77
2019-05-20T01:20:12.512Z,43.77
2019-05-20T01:22:38.883Z,43.00
2019-05-20T01:25:05.752Z,43.03
2019-05-20T01:27:32.313Z,42.30
2019-05-20T01:29:58.772Z,45.90
2019-05-20T01:32:25.270Z,42.53
2019-05-20T01:34:51.714Z,45.27
2019-05-20T01:37:18.184Z,47.33
2019-05-20T01:39:44.963Z,43.03
2019-05-20T01:42:11.538Z,45.10
2019-05-20T01:44:38.445Z,45.30
2019-05-20T01:47:04.996Z,47.03
2019-05-20T01:49:31.372Z,48.60
2019-05-20T01:51:57.884Z,46.60
2019-05-20T01:54:24.351Z,45.60
2019-05-20T01:56:50.718Z,49.73
2019-05-20T01:59:18.273Z,48.30
2019-05-20T02:01:45.013Z,46.60
2019-05-20T02:04:11.855Z,49.00
2019-05-20T02:06:38.707Z,46.33
2019-05-20T02:09:07.588Z,48.87
2019-05-20T02:11:34.067Z,48.47
2019-05-20T02:14:02.543Z,42.70
2019-05-20T02:16:30.356Z,41.40
2019-05-20T02:18:56.924Z,41.70
2019-05-20T02:21:23.594Z,43.53
2019-05-20T02:23:50.274Z,43.03
2019-05-20T02:26:16.924Z,44.10
2019-05-20T02:28:43.425Z,41.47
2019-05-20T02:31:09.978Z,41.10
2019-05-20T02:33:50.749Z,42.60
2019-05-20T02:36:04.828Z,40.20
2019-05-20T02:38:31.754Z,44.77
2019-05-20T02:40:58.538Z,40.20
2019-05-20T02:43:25.088Z,40.63
2019-05-20T02:45:51.483Z,38.90
2019-05-20T02:48:18.029Z,37.90
2019-05-20T02:50:44.617Z,41.50
2019-05-20T02:53:11.365Z,42.67
2019-05-20T02:55:37.849Z,41.73
2019-05-20T02:58:04.290Z,40.67
2019-05-20T03:00:30.757Z,41.50
2019-05-20T03:02:57.309Z,39.80
2019-05-20T03:05:43.737Z,37.03
2019-05-20T03:08:10.306Z,39.30
2019-05-20T03:10:36.780Z,38.50
2019-05-20T03:13:03.352Z,38.33
2019-05-20T03:15:30.006Z,36.00
2019-05-20T03:17:57.061Z,35.97
2019-05-20T03:20:23.531Z,34.50
2019-05-20T03:22:49.890Z,34.53
2019-05-20T03:25:16.749Z,31.67
2019-05-20T03:27:43.220Z,34.37
2019-05-20T03:30:10.397Z,32.57
2019-05-20T03:32:36.970Z,36.23
2019-05-20T03:35:08.055Z,33.70
2019-05-20T03:37:34.721Z,37.60
2019-05-20T03:40:01.684Z,38.07
2019-05-20T03:42:28.243Z,40.80
2019-05-20T03:44:54.800Z,41.57
2019-05-20T03:47:21.290Z,37.50
2019-05-20T03:49:47.736Z,37.73
2019-05-20T03:52:14.207Z,36.10
2019-05-20T03:54:40.561Z,36.13
2019-05-20T03:57:07.145Z,35.50
2019-05-20T03:59:33.810Z,34.90
2019-05-20T04:02:00.273Z,36.27
2019-05-20T04:04:26.720Z,35.30
2019-05-20T04:06:53.406Z,36.90
2019-05-20T04:09:19.949Z,32.73
2019-05-20T04:11:46.536Z,36.10
2019-05-20T04:14:13.114Z,36.53
2019-05-20T04:16:39.921Z,35.57
2019-05-20T04:19:06.495Z,35.57
2019-05-20T04:21:33.164Z,32.77
2019-05-20T04:24:01.395Z,33.47
2019-05-20T04:26:28.087Z,35.47
2019-05-20T04:28:54.569Z,34.57
2019-05-20T04:31:21.023Z,33.50
2019-05-20T04:33:47.514Z,33.33
2019-05-20T04:36:14.169Z,34.40
2019-05-20T04:38:40.851Z,34.33
2019-05-20T04:41:07.635Z,33.70
2019-05-20T04:43:34.079Z,34.10
2019-05-20T04:46:00.669Z,34.80
2019-05-20T04:48:27.224Z,30.73
2019-05-20T04:50:53.716Z,33.60
2019-05-20T04:53:20.257Z,34.00
2019-05-20T04:55:46.843Z,34.00
2019-05-20T04:58:13.284Z,30.57
2019-05-20T05:00:48.923Z,31.50
2019-05-20T05:03:15.375Z,33.67
2019-05-20T05:05:42.081Z,32.47
2019-05-20T05:08:08.520Z,29.17
2019-05-20T05:10:34.983Z,30.47
2019-05-20T05:13:01.556Z,31.57
2019-05-20T05:15:28.221Z,31.73
2019-05-20T05:17:54.787Z,30.97
2019-05-20T05:20:21.462Z,31.03
2019-05-20T05:22:48.023Z,29.33
2019-05-20T05:25:15.008Z,30.83
2019-05-20T05:27:41.953Z,28.70
2019-05-20T05:30:08.908Z,28.93
2019-05-20T05:32:44.287Z,29.50
2019-05-20T05:35:15.763Z,26.00
2019-05-20T05:37:42.669Z,29.43
2019-05-20T05:40:10.716Z,27.20
2019-05-20T05:42:37.189Z,28.00
2019-05-20T05:45:05.242Z,26.37
2019-05-20T05:47:31.845Z,26.97
2019-05-20T05:49:58.698Z,27.27
2019-05-20T05:52:25.178Z,26.60
2019-05-20T05:54:51.732Z,25.03
2019-05-20T05:57:18.222Z,25.93
2019-05-20T05:59:44.764Z,26.23
2019-05-20T06:02:11.225Z,24.57
2019-05-20T06:04:37.813Z,25.53
2019-05-20T06:07:04.260Z,26.00
2019-05-20T06:09:30.737Z,26.87
2019-05-20T06:11:57.197Z,27.67
2019-05-20T06:14:23.678Z,25.67
2019-05-20T06:16:50.130Z,27.17
2019-05-20T06:19:16.678Z,25.83
2019-05-20T06:21:43.101Z,26.60
2019-05-20T06:24:09.683Z,24.40
2019-05-20T06:26:36.258Z,26.57
2019-05-20T06:29:03.161Z,26.70
2019-05-20T06:31:29.886Z,25.83
2019-05-20T06:33:56.601Z,26.60
2019-05-20T06:36:26.944Z,26.80
2019-05-20T06:38:53.795Z,24.87
2019-05-20T06:41:20.666Z,25.87
2019-05-20T06:43:47.237Z,28.00
2019-05-20T06:46:13.834Z,25.10
2019-05-20T06:48:40.283Z,26.07
2019-05-20T06:51:07.058Z,24.47
2019-05-20T06:53:33.545Z,25.07
2019-05-20T06:56:00.023Z,25.27
2019-05-20T06:58:26.475Z,27.27
2019-05-20T07:00:53.016Z,27.00
2019-05-20T07:03:19.404Z,29.50
2019-05-20T07:05:45.952Z,26.37
2019-05-20T07:08:12.433Z,25.17
2019-05-20T07:10:39.391Z,25.63
2019-05-20T07:13:06.249Z,25.67
2019-05-20T07:15:32.988Z,26.50
2019-05-20T07:17:59.666Z,25.03
2019-05-20T07:20:26.206Z,25.37
2019-05-20T07:22:56.208Z,25.23
2019-05-20T07:25:21.418Z,23.70
2019-05-20T07:27:48.095Z,26.77
2019-05-20T07:30:15.743Z,25.07
2019-05-20T07:32:42.514Z,23.57
2019-05-20T07:35:09.402Z,24.40
2019-05-20T07:37:36.239Z,22.97
2019-05-20T07:40:04.483Z,24.07
2019-05-20T07:42:30.939Z,24.60
2019-05-20T07:44:57.328Z,24.07
2019-05-20T07:47:24.296Z,23.20
2019-05-20T07:49:51.863Z,23.30
2019-05-20T07:52:19.016Z,23.70
2019-05-20T07:54:46.700Z,22.80
2019-05-20T07:57:16.261Z,25.80
2019-05-20T07:59:44.251Z,23.43
2019-05-20T08:02:11.320Z,24.27
2019-05-20T08:04:38.006Z,21.63
2019-05-20T08:07:26.238Z,21.60
2019-05-20T08:09:33.668Z,24.47
2019-05-20T08:12:00.170Z,20.77
2019-05-20T08:14:26.621Z,22.60
2019-05-20T08:16:53.107Z,21.80
2019-05-20T08:19:20.024Z,22.40
2019-05-20T08:21:46.602Z,22.60
2019-05-20T08:24:13.360Z,20.50
2019-05-20T08:26:40.069Z,24.87
2019-05-20T08:29:06.612Z,21.10
2019-05-20T08:31:33.114Z,23.17
2019-05-20T08:33:59.558Z,21.63
2019-05-20T08:36:26.019Z,24.17
2019-05-20T08:38:52.525Z,22.00
2019-05-20T08:41:19.086Z,23.43
2019-05-20T08:43:45.568Z,23.07
2019-05-20T08:46:12.132Z,24.40
2019-05-20T08:48:38.597Z,24.33
2019-05-20T08:51:05.165Z,26.47
2019-05-20T08:53:31.749Z,26.77
2019-05-20T08:55:58.207Z,26.67
2019-05-20T08:58:24.794Z,25.80
2019-05-20T09:00:51.340Z,25.80
2019-05-20T09:03:17.797Z,26.87
2019-05-20T09:05:44.376Z,26.43
2019-05-20T09:08:11.046Z,25.03
2019-05-20T09:10:39.666Z,26.30
2019-05-20T09:13:05.896Z,23.70
2019-05-20T09:15:32.720Z,24.17
2019-05-20T09:17:59.384Z,23.93
2019-05-20T09:20:26.494Z,25.57
2019-05-20T09:22:53.217Z,22.63
2019-05-20T09:25:23.767Z,23.00
2019-05-20T09:27:50.747Z,22.50
2019-05-20T09:30:17.796Z,24.17
2019-05-20T09:32:45.254Z,21.77
2019-05-20T09:35:12.124Z,22.17
2019-05-20T09:37:38.798Z,22.00
2019-05-20T09:40:07.171Z,21.47
2019-05-20T09:42:33.914Z,22.50
2019-05-20T09:45:03.036Z,23.43
2019-05-20T09:47:28.762Z,23.33
2019-05-20T09:49:55.215Z,24.73
2019-05-20T09:52:21.783Z,23.40
2019-05-20T09:54:48.136Z,24.97
2019-05-20T09:57:14.812Z,25.77
2019-05-20T09:59:43.717Z,30.17
2019-05-20T10:02:09.993Z,30.57
2019-05-20T10:04:36.435Z,30.20
2019-05-20T10:07:03.006Z,30.83
2019-05-20T10:09:29.452Z,31.50
2019-05-20T10:11:55.922Z,30.00
2019-05-20T10:14:22.380Z,34.43
2019-05-20T10:16:48.956Z,28.30
2019-05-20T10:19:15.605Z,29.10
2019-05-20T10:21:42.580Z,29.30
2019-05-20T10:24:09.136Z,26.60
2019-05-20T10:26:36.164Z,27.47
2019-05-20T10:29:03.031Z,26.80
2019-05-20T10:31:29.679Z,26.57
2019-05-20T10:33:56.391Z,29.10
2019-05-20T10:36:23.143Z,30.43
2019-05-20T10:38:58.646Z,30.50
2019-05-20T10:41:17.871Z,32.17
2019-05-20T10:43:44.573Z,30.90
2019-05-20T10:46:11.230Z,29.63
2019-05-20T10:48:37.787Z,31.20
2019-05-20T10:51:04.697Z,30.70
2019-05-20T10:53:31.549Z,30.13
2019-05-20T10:55:58.445Z,30.33
2019-05-20T10:58:25.510Z,30.63
2019-05-20T11:01:02.401Z,28.23
2019-05-20T11:03:20.359Z,27.10
2019-05-20T11:05:46.812Z,27.57
2019-05-20T11:08:13.259Z,26.93
2019-05-20T11:10:40.159Z,29.50
2019-05-20T11:13:06.720Z,31.03
2019-05-20T11:15:33.640Z,31.97
2019-05-20T11:18:00.026Z,29.53
2019-05-20T11:20:26.519Z,30.53
2019-05-20T11:22:52.942Z,30.70
2019-05-20T11:25:19.527Z,27.87
2019-05-20T11:27:45.979Z,30.30
2019-05-20T11:30:13.050Z,30.50
2019-05-20T11:32:39.819Z,29.80
2019-05-20T11:35:07.197Z,30.27
2019-05-20T11:37:33.874Z,29.30
2019-05-20T11:40:00.322Z,29.00
2019-05-20T11:42:26.900Z,32.70
2019-05-20T11:44:53.352Z,32.13
2019-05-20T11:47:20.157Z,32.00
2019-05-20T11:49:46.741Z,28.57
2019-05-20T11:52:13.628Z,30.27
2019-05-20T11:54:40.105Z,27.10
2019-05-20T11:57:06.681Z,30.13
2019-05-20T11:59:33.117Z,26.97
2019-05-20T12:02:03.675Z,29.17
2019-05-20T12:04:28.374Z,30.23
2019-05-20T12:06:55.307Z,27.60
2019-05-20T12:09:22.150Z,29.70
2019-05-20T12:11:48.982Z,27.70
2019-05-20T12:14:15.452Z,29.40
2019-05-20T12:16:41.824Z,27.83
2019-05-20T12:19:08.404Z,28.30
2019-05-20T12:21:35.851Z,28.20
2019-05-20T12:24:02.261Z,28.80
2019-05-20T12:26:28.816Z,29.93
2019-05-20T12:28:55.321Z,28.43
2019-05-20T12:31:21.773Z,28.10
2019-05-20T12:33:48.592Z,26.83
2019-05-20T12:36:15.092Z,29.20
2019-05-20T12:38:41.906Z,27.47
2019-05-20T12:41:08.739Z,29.73
2019-05-20T12:43:35.448Z,30.97
2019-05-20T12:46:02.310Z,30.00
2019-05-20T12:48:28.907Z,29.27
2019-05-20T12:50:55.448Z,28.80
2019-05-20T12:53:21.932Z,27.73
2019-05-20T12:55:48.608Z,26.37
2019-05-20T12:58:15.060Z,27.53
2019-05-20T13:00:41.537Z,28.00
2019-05-20T13:03:07.981Z,28.73
2019-05-20T13:05:34.452Z,28.73
2019-05-20T13:08:01.012Z,26.23
2019-05-20T13:10:31.240Z,29.43
2019-05-20T13:12:55.737Z,28.97
2019-05-20T13:15:22.422Z,27.87
2019-05-20T13:17:48.865Z,29.47
2019-05-20T13:20:15.761Z,28.23
2019-05-20T13:22:42.218Z,28.00
2019-05-20T13:25:09.259Z,30.53
2019-05-20T13:27:35.723Z,31.17
2019-05-20T13:30:05.495Z,30.50
2019-05-20T13:32:31.984Z,28.70
2019-05-20T13:34:58.352Z,29.70
2019-05-20T13:37:24.837Z,26.43
2019-05-20T13:39:51.300Z,27.03
2019-05-20T13:42:17.777Z,27.87
2019-05-20T13:44:44.529Z,29.73
2019-05-20T13:47:11.462Z,27.77
2019-05-20T13:49:38.422Z,30.00
2019-05-20T13:52:05.455Z,30.00
2019-05-20T13:54:32.300Z,31.00
2019-05-20T13:56:58.897Z,34.03
2019-05-20T13:59:25.481Z,33.10
2019-05-20T14:01:52.026Z,31.57
2019-05-20T14:04:18.596Z,30.00
2019-05-20T14:06:45.260Z,31.27
2019-05-20T14:09:11.744Z,32.97
2019-05-20T14:11:38.296Z,29.00
2019-05-20T14:14:05.296Z,32.50
2019-05-20T14:16:31.768Z,31.17
2019-05-20T14:18:58.128Z,31.20
2019-05-20T14:21:24.917Z,31.90
2019-05-20T14:23:51.539Z,30.93
2019-05-20T14:26:17.984Z,32.13
2019-05-20T14:28:44.549Z,29.57
2019-05-20T14:31:11.113Z,30.60
2019-05-20T14:33:37.593Z,31.80
2019-05-20T14:36:04.057Z,31.80
2019-05-20T14:38:30.722Z,32.57
2019-05-20T14:40:57.404Z,33.43
2019-05-20T14:43:23.867Z,35.10
2019-05-20T14:45:50.345Z,33.87
2019-05-20T14:48:16.887Z,32.60
2019-05-20T14:50:43.596Z,36.30
2019-05-20T14:53:10.142Z,34.03
2019-05-20T14:55:42.057Z,34.70
2019-05-20T14:58:04.924Z,34.10
2019-05-20T15:00:31.572Z,34.40
2019-05-20T15:02:58.163Z,32.80
2019-05-20T15:05:24.888Z,32.33
2019-05-20T15:07:51.432Z,34.83
2019-05-20T15:10:18.584Z,33.30
2019-05-20T15:12:45.060Z,33.47
2019-05-20T15:15:12.338Z,30.57
2019-05-20T15:17:39.447Z,33.13
2019-05-20T15:20:07.808Z,33.63
2019-05-20T15:22:34.597Z,32.00
2019-05-20T15:25:01.504Z,32.03
2019-05-20T15:27:28.168Z,30.87
2019-05-20T15:29:54.523Z,33.10
2019-05-20T15:32:21.037Z,30.37
2019-05-20T15:34:47.854Z,31.17
2019-05-20T15:37:14.976Z,32.93
2019-05-20T15:39:41.663Z,30.77
2019-05-20T15:42:08.121Z,30.03
2019-05-20T15:44:35.017Z,29.97
2019-05-20T15:47:01.862Z,28.07
2019-05-20T15:49:28.711Z,31.30
2019-05-20T15:51:55.159Z,30.17
2019-05-20T15:54:21.633Z,30.23
2019-05-20T15:56:48.098Z,30.83
2019-05-20T15:59:14.690Z,31.03
2019-05-20T16:01:41.494Z,30.80
2019-05-20T16:04:08.329Z,32.43
2019-05-20T16:06:34.902Z,30.87
2019-05-20T16:09:01.714Z,30.37
2019-05-20T16:11:28.338Z,28.97
2019-05-20T16:13:55.189Z,31.67
2019-05-20T16:16:21.748Z,29.77
2019-05-20T16:18:48.325Z,28.80
2019-05-20T16:21:15.017Z,28.40
2019-05-20T16:23:41.576Z,30.50
2019-05-20T16:26:08.307Z,30.20
2019-05-20T16:28:34.753Z,31.03
2019-05-20T16:31:01.223Z,29.17
2019-05-20T16:33:27.897Z,26.20
2019-05-20T16:35:54.888Z,27.43
2019-05-20T16:38:21.451Z,28.37
2019-05-20T16:40:47.962Z,28.93
2019-05-20T16:43:14.513Z,23.70
2019-05-20T16:45:41.089Z,23.83
2019-05-20T16:48:07.825Z,26.23
2019-05-20T16:50:34.513Z,24.93
2019-05-20T16:53:01.137Z,23.83
2019-05-20T16:55:28.145Z,22.70
2019-05-20T16:57:54.724Z,23.10
2019-05-20T17:00:31.278Z,24.40
2019-05-20T17:02:50.105Z,20.83
2019-05-20T17:05:17.770Z,23.00
2019-05-20T17:07:44.340Z,22.80
2019-05-20T17:10:11.471Z,21.37
2019-05-20T17:12:38.062Z,21.13
2019-05-20T17:15:05.113Z,21.77
2019-05-20T17:17:31.561Z,20.80
2019-05-20T17:19:58.149Z,19.90
2019-05-20T17:22:24.796Z,18.10
2019-05-20T17:24:51.590Z,20.57
2019-05-20T17:27:18.065Z,20.20
2019-05-20T17:29:44.540Z,18.73
2019-05-20T17:32:10.997Z,19.67
2019-05-20T17:34:37.834Z,20.57
2019-05-20T17:37:04.310Z,21.33
2019-05-20T17:39:31.045Z,20.93
2019-05-20T17:41:57.585Z,20.37
2019-05-20T17:44:24.153Z,22.00
2019-05-20T17:46:50.925Z,21.17
2019-05-20T17:49:17.284Z,21.03
2019-05-20T17:51:43.866Z,20.23
2019-05-20T17:54:10.419Z,22.00
2019-05-20T17:56:36.897Z,19.93
2019-05-20T17:59:03.647Z,19.60
2019-05-20T18:01:30.219Z,19.53
2019-05-20T18:03:56.785Z,20.10
2019-05-20T18:06:23.724Z,20.47
2019-05-20T18:08:52.119Z,22.03
2019-05-20T18:11:19.341Z,19.30
2019-05-20T18:13:46.048Z,20.87
2019-05-20T18:16:12.688Z,21.17
2019-05-20T18:18:39.173Z,22.17
2019-05-20T18:21:05.633Z,21.40
2019-05-20T18:23:32.370Z,22.20
2019-05-20T18:25:58.916Z,20.57
2019-05-20T18:28:25.324Z,21.07
2019-05-20T18:30:51.781Z,21.07
2019-05-20T18:33:18.590Z,22.00
2019-05-20T18:35:45.055Z,21.73
2019-05-20T18:38:11.531Z,21.20
2019-05-20T18:40:38.081Z,20.57
2019-05-20T18:43:04.837Z,21.10
2019-05-20T18:45:31.784Z,23.20
2019-05-20T18:47:58.266Z,20.70
2019-05-20T18:50:24.803Z,20.90
2019-05-20T18:52:51.395Z,19.97
2019-05-20T18:55:17.841Z,19.40
2019-05-20T18:57:44.508Z,20.67
2019-05-20T19:00:11.795Z,21.00
2019-05-20T19:02:38.362Z,21.10
2019-05-20T19:05:06.431Z,19.60
2019-05-20T19:07:32.884Z,19.40
2019-05-20T19:09:59.467Z,19.97
2019-05-20T19:12:26.129Z,20.20
2019-05-20T19:14:52.610Z,20.20
2019-05-20T19:17:19.068Z,20.07
2019-05-20T19:19:45.553Z,21.90
2019-05-20T19:22:12.482Z,23.60
2019-05-20T19:24:39.028Z,21.47
2019-05-20T19:27:05.600Z,21.10
2019-05-20T19:29:32.197Z,22.37
2019-05-20T19:32:01.771Z,21.17
2019-05-20T19:34:27.033Z,24.60
2019-05-20T19:36:53.508Z,22.90
2019-05-20T19:39:20.052Z,24.63
2019-05-20T19:41:46.528Z,24.73
2019-05-20T19:44:13.553Z,21.80
2019-05-20T19:46:40.709Z,24.97
2019-05-20T19:49:07.161Z,22.87
2019-05-20T19:51:33.769Z,21.57
2019-05-20T19:54:00.222Z,20.97
2019-05-20T19:56:27.065Z,21.13
2019-05-20T19:58:53.884Z,19.37
2019-05-20T20:01:20.413Z,21.20
2019-05-20T20:03:46.921Z,21.37
2019-05-20T20:06:13.365Z,21.00
2019-05-20T20:08:39.932Z,20.60
2019-05-20T20:11:06.302Z,22.43
2019-05-20T20:13:34.524Z,22.63
2019-05-20T20:16:01.042Z,22.80
2019-05-20T20:18:27.498Z,22.00
2019-05-20T20:20:53.956Z,24.97
2019-05-20T20:23:20.898Z,23.83
2019-05-20T20:25:47.451Z,24.13
2019-05-20T20:28:13.934Z,24.03
2019-05-20T20:30:40.408Z,25.70
2019-05-20T20:33:06.957Z,26.10
2019-05-20T20:35:38.096Z,29.80
2019-05-20T20:38:01.689Z,29.13
2019-05-20T20:40:28.601Z,31.43
2019-05-20T20:42:54.976Z,31.13
2019-05-20T20:45:21.553Z,33.17
2019-05-20T20:47:48.303Z,32.77
2019-05-20T20:50:14.962Z,34.47
2019-05-20T20:52:41.539Z,31.23
2019-05-20T20:55:08.701Z,33.00
2019-05-20T20:57:35.269Z,33.17
2019-05-20T21:00:04.584Z,31.90
2019-05-20T21:02:31.021Z,32.93
2019-05-20T21:04:57.609Z,32.17
2019-05-20T21:07:24.076Z,31.40
2019-05-20T21:09:50.871Z,30.13
2019-05-20T21:12:17.508Z,30.23
2019-05-20T21:14:43.956Z,30.50
2019-05-20T21:17:10.384Z,26.07
2019-05-20T21:19:36.859Z,27.80
2019-05-20T21:22:03.428Z,25.20
2019-05-20T21:24:29.891Z,25.30
2019-05-20T21:26:56.358Z,25.53
2019-05-20T21:29:22.864Z,27.43
2019-05-20T21:31:49.409Z,26.80
2019-05-20T21:34:16.173Z,23.77
2019-05-20T21:36:47.796Z,27.37
2019-05-20T21:39:11.330Z,24.27
2019-05-20T21:41:57.642Z,27.33
2019-05-20T21:44:24.131Z,26.67
2019-05-20T21:46:50.576Z,24.43
2019-05-20T21:49:17.063Z,30.83
2019-05-20T21:51:43.519Z,28.37
2019-05-20T21:54:09.981Z,25.43
2019-05-20T21:56:36.487Z,31.40
2019-05-20T21:59:03.203Z,29.33
2019-05-20T22:01:29.683Z,27.23
2019-05-20T22:03:56.123Z,26.63
2019-05-20T22:06:22.848Z,28.67
2019-05-20T22:08:49.298Z,28.03
2019-05-20T22:11:15.867Z,29.87
2019-05-20T22:13:42.245Z,28.67
2019-05-20T22:16:09.096Z,29.60
2019-05-20T22:18:35.552Z,29.50
2019-05-20T22:21:02.059Z,28.70
2019-05-20T22:23:30.396Z,29.50
2019-05-20T22:25:56.880Z,29.63
2019-05-20T22:28:23.383Z,28.50
2019-05-20T22:30:49.975Z,29.90
2019-05-20T22:33:16.428Z,32.33
2019-05-20T22:35:42.816Z,29.10
2019-05-20T22:38:09.260Z,29.70
2019-05-20T22:40:35.845Z,29.47
2019-05-20T22:43:02.410Z,31.30
2019-05-20T22:45:28.966Z,29.70
2019-05-20T22:47:55.805Z,30.43
2019-05-20T22:50:22.364Z,33.57
2019-05-20T22:52:48.834Z,31.80
2019-05-20T22:55:15.386Z,34.10
2019-05-20T22:57:42.153Z,32.10
2019-05-20T23:00:08.908Z,32.20
2019-05-20T23:02:35.407Z,37.07
2019-05-20T23:05:02.673Z,35.13
2019-05-20T23:07:29.141Z,38.10
2019-05-20T23:09:55.621Z,33.70
2019-05-20T23:12:22.311Z,34.70
2019-05-20T23:14:48.892Z,33.77
2019-05-20T23:17:15.543Z,34.10
2019-05-20T23:19:42.012Z,30.23
2019-05-20T23:22:08.485Z,33.00
2019-05-20T23:24:34.956Z,35.40
2019-05-20T23:27:01.410Z,32.40
2019-05-20T23:29:27.900Z,33.60
2019-05-20T23:31:54.357Z,31.60
2019-05-20T23:34:20.823Z,33.80
2019-05-20T23:36:47.280Z,31.97
2019-05-20T23:39:13.729Z,27.77
2019-05-20T23:41:40.320Z,32.17
2019-05-20T23:44:06.885Z,26.87
2019-05-20T23:46:33.357Z,28.23
2019-05-20T23:48:59.921Z,27.37
2019-05-20T23:51:26.493Z,23.03
2019-05-20T23:53:52.949Z,24.10
2019-05-20T23:56:19.425Z,22.80
2019-05-20T23:58:46.186Z,23.67
